sensor_id;sensor_type;location;lat;lon;timestamp;P1;durP1;ratioP1;P2;durP2;ratioP2
72611;SDS011;60655;52.182;4.474;2023-07-08T00:01:00;9.00;;;3.45;;
72611;SDS011;60655;52.182;4.474;2023-07-08T00:03:01;8.10;;;3.08;;
72611;SDS011;60655;52.182;4.474;2023-07-08T00:05:02;8.77;;;3.50;;
72611;SDS011;60655;52.182;4.474;2023-07-08T00:07:03;7.32;;;3.00;;
72611;SDS011;60655;52.182;4.474;2023-07-08T00:09:08;6.30;;;2.80;;
72611;SDS011;60655;52.182;4.474;2023-07-08T00:11:13;7.90;;;3.33;;
72611;SDS011;60655;52.182;4.474;2023-07-08T00:13:15;7.07;;;3.22;;
72611;SDS011;60655;52.182;4.474;2023-07-08T00:15:16;9.63;;;3.42;;
72611;SDS011;60655;52.182;4.474;2023-07-08T00:17:17;10.13;;;3.78;;
72611;SDS011;60655;52.182;4.474;2023-07-08T00:19:18;7.57;;;3.95;;
72611;SDS011;60655;52.182;4.474;2023-07-08T00:21:21;9.68;;;3.72;;
72611;SDS011;60655;52.182;4.474;2023-07-08T00:23:22;11.50;;;4.07;;
72611;SDS011;60655;52.182;4.474;2023-07-08T00:25:23;8.63;;;3.97;;
72611;SDS011;60655;52.182;4.474;2023-07-08T00:27:24;9.95;;;3.90;;
72611;SDS011;60655;52.182;4.474;2023-07-08T00:29:25;6.85;;;2.92;;
72611;SDS011;60655;52.182;4.474;2023-07-08T00:31:26;6.70;;;3.08;;
72611;SDS011;60655;52.182;4.474;2023-07-08T00:33:27;7.07;;;3.00;;
72611;SDS011;60655;52.182;4.474;2023-07-08T00:37:55;7.05;;;3.00;;
72611;SDS011;60655;52.182;4.474;2023-07-08T00:40:08;7.70;;;3.20;;
72611;SDS011;60655;52.182;4.474;2023-07-08T00:44:19;5.70;;;2.70;;
72611;SDS011;60655;52.182;4.474;2023-07-08T00:48:32;6.72;;;2.70;;
72611;SDS011;60655;52.182;4.474;2023-07-08T00:50:35;5.95;;;2.40;;
72611;SDS011;60655;52.182;4.474;2023-07-08T00:52:37;6.63;;;2.50;;
72611;SDS011;60655;52.182;4.474;2023-07-08T00:54:37;6.72;;;2.78;;
72611;SDS011;60655;52.182;4.474;2023-07-08T00:56:42;6.20;;;2.72;;
72611;SDS011;60655;52.182;4.474;2023-07-08T00:59:11;7.72;;;3.03;;
72611;SDS011;60655;52.182;4.474;2023-07-08T01:01:16;6.60;;;2.90;;
72611;SDS011;60655;52.182;4.474;2023-07-08T01:03:18;7.43;;;2.83;;
72611;SDS011;60655;52.182;4.474;2023-07-08T01:05:22;8.63;;;2.95;;
72611;SDS011;60655;52.182;4.474;2023-07-08T01:07:26;11.30;;;3.20;;
72611;SDS011;60655;52.182;4.474;2023-07-08T01:09:28;7.93;;;3.40;;
72611;SDS011;60655;52.182;4.474;2023-07-08T01:11:33;5.15;;;2.80;;
72611;SDS011;60655;52.182;4.474;2023-07-08T01:13:39;7.25;;;3.03;;
72611;SDS011;60655;52.182;4.474;2023-07-08T01:15:43;6.40;;;2.92;;
72611;SDS011;60655;52.182;4.474;2023-07-08T01:17:47;8.35;;;3.00;;
72611;SDS011;60655;52.182;4.474;2023-07-08T01:23:57;5.88;;;2.53;;
72611;SDS011;60655;52.182;4.474;2023-07-08T01:25:58;7.50;;;2.88;;
72611;SDS011;60655;52.182;4.474;2023-07-08T01:28:01;6.50;;;3.05;;
72611;SDS011;60655;52.182;4.474;2023-07-08T01:30:03;6.07;;;2.75;;
72611;SDS011;60655;52.182;4.474;2023-07-08T01:32:06;7.75;;;3.00;;
72611;SDS011;60655;52.182;4.474;2023-07-08T01:34:08;6.80;;;2.60;;
72611;SDS011;60655;52.182;4.474;2023-07-08T01:36:13;7.75;;;3.13;;
72611;SDS011;60655;52.182;4.474;2023-07-08T01:38:24;7.88;;;2.58;;
72611;SDS011;60655;52.182;4.474;2023-07-08T01:40:32;8.77;;;2.70;;
72611;SDS011;60655;52.182;4.474;2023-07-08T01:42:37;6.35;;;2.95;;
72611;SDS011;60655;52.182;4.474;2023-07-08T01:44:38;7.22;;;3.00;;
72611;SDS011;60655;52.182;4.474;2023-07-08T01:46:39;5.80;;;2.83;;
72611;SDS011;60655;52.182;4.474;2023-07-08T01:48:41;6.70;;;2.80;;
72611;SDS011;60655;52.182;4.474;2023-07-08T01:50:53;5.47;;;2.67;;
72611;SDS011;60655;52.182;4.474;2023-07-08T01:52:59;6.22;;;2.72;;
72611;SDS011;60655;52.182;4.474;2023-07-08T01:55:03;8.63;;;2.95;;
72611;SDS011;60655;52.182;4.474;2023-07-08T01:57:05;7.38;;;3.00;;
72611;SDS011;60655;52.182;4.474;2023-07-08T01:59:06;5.38;;;2.67;;
72611;SDS011;60655;52.182;4.474;2023-07-08T02:01:07;7.78;;;3.00;;
72611;SDS011;60655;52.182;4.474;2023-07-08T02:03:10;6.43;;;2.58;;
72611;SDS011;60655;52.182;4.474;2023-07-08T02:05:11;7.45;;;2.90;;
72611;SDS011;60655;52.182;4.474;2023-07-08T02:07:12;8.75;;;2.70;;
72611;SDS011;60655;52.182;4.474;2023-07-08T02:09:13;9.60;;;3.17;;
72611;SDS011;60655;52.182;4.474;2023-07-08T02:11:14;9.48;;;2.97;;
72611;SDS011;60655;52.182;4.474;2023-07-08T02:13:15;8.68;;;3.25;;
72611;SDS011;60655;52.182;4.474;2023-07-08T02:15:16;7.38;;;2.90;;
72611;SDS011;60655;52.182;4.474;2023-07-08T02:17:17;6.18;;;2.80;;
72611;SDS011;60655;52.182;4.474;2023-07-08T02:19:18;10.23;;;3.35;;
72611;SDS011;60655;52.182;4.474;2023-07-08T02:21:20;6.28;;;2.90;;
72611;SDS011;60655;52.182;4.474;2023-07-08T02:23:21;6.65;;;2.83;;
72611;SDS011;60655;52.182;4.474;2023-07-08T02:25:22;7.63;;;2.97;;
72611;SDS011;60655;52.182;4.474;2023-07-08T02:27:23;7.28;;;2.90;;
72611;SDS011;60655;52.182;4.474;2023-07-08T02:29:24;7.10;;;3.00;;
72611;SDS011;60655;52.182;4.474;2023-07-08T02:31:25;10.25;;;3.10;;
72611;SDS011;60655;52.182;4.474;2023-07-08T02:33:26;7.38;;;3.00;;
72611;SDS011;60655;52.182;4.474;2023-07-08T02:35:33;6.30;;;3.40;;
72611;SDS011;60655;52.182;4.474;2023-07-08T02:37:34;9.07;;;3.30;;
72611;SDS011;60655;52.182;4.474;2023-07-08T02:39:35;12.88;;;3.50;;
72611;SDS011;60655;52.182;4.474;2023-07-08T02:41:36;6.20;;;3.00;;
72611;SDS011;60655;52.182;4.474;2023-07-08T02:43:38;8.90;;;3.80;;
72611;SDS011;60655;52.182;4.474;2023-07-08T02:45:39;7.22;;;3.50;;
72611;SDS011;60655;52.182;4.474;2023-07-08T02:47:40;9.93;;;3.28;;
72611;SDS011;60655;52.182;4.474;2023-07-08T02:49:41;7.05;;;2.95;;
72611;SDS011;60655;52.182;4.474;2023-07-08T02:51:42;7.30;;;3.15;;
72611;SDS011;60655;52.182;4.474;2023-07-08T02:53:43;10.20;;;3.35;;
72611;SDS011;60655;52.182;4.474;2023-07-08T02:55:44;8.32;;;3.10;;
72611;SDS011;60655;52.182;4.474;2023-07-08T02:57:45;6.55;;;3.13;;
72611;SDS011;60655;52.182;4.474;2023-07-08T02:59:46;6.45;;;3.10;;
72611;SDS011;60655;52.182;4.474;2023-07-08T03:01:47;9.98;;;3.80;;
72611;SDS011;60655;52.182;4.474;2023-07-08T03:03:48;8.02;;;3.42;;
72611;SDS011;60655;52.182;4.474;2023-07-08T03:05:58;6.60;;;2.88;;
72611;SDS011;60655;52.182;4.474;2023-07-08T03:08:04;6.38;;;3.35;;
72611;SDS011;60655;52.182;4.474;2023-07-08T03:10:05;8.55;;;3.40;;
72611;SDS011;60655;52.182;4.474;2023-07-08T03:12:07;8.65;;;4.00;;
72611;SDS011;60655;52.182;4.474;2023-07-08T03:14:09;9.15;;;3.80;;
72611;SDS011;60655;52.182;4.474;2023-07-08T03:16:10;8.45;;;3.72;;
72611;SDS011;60655;52.182;4.474;2023-07-08T03:18:14;8.45;;;3.60;;
72611;SDS011;60655;52.182;4.474;2023-07-08T03:20:15;9.40;;;3.70;;
72611;SDS011;60655;52.182;4.474;2023-07-08T03:22:17;7.07;;;3.47;;
72611;SDS011;60655;52.182;4.474;2023-07-08T03:24:18;7.70;;;3.45;;
72611;SDS011;60655;52.182;4.474;2023-07-08T03:26:20;11.27;;;3.75;;
72611;SDS011;60655;52.182;4.474;2023-07-08T03:28:23;7.30;;;3.63;;
72611;SDS011;60655;52.182;4.474;2023-07-08T03:30:25;7.45;;;3.63;;
72611;SDS011;60655;52.182;4.474;2023-07-08T03:32:27;7.93;;;3.70;;
72611;SDS011;60655;52.182;4.474;2023-07-08T03:34:28;8.43;;;4.03;;
72611;SDS011;60655;52.182;4.474;2023-07-08T03:36:29;9.52;;;3.70;;
72611;SDS011;60655;52.182;4.474;2023-07-08T03:38:30;6.72;;;3.35;;
72611;SDS011;60655;52.182;4.474;2023-07-08T03:40:31;8.98;;;3.67;;
72611;SDS011;60655;52.182;4.474;2023-07-08T03:42:32;9.80;;;3.90;;
72611;SDS011;60655;52.182;4.474;2023-07-08T03:44:33;9.63;;;4.00;;
72611;SDS011;60655;52.182;4.474;2023-07-08T03:46:34;7.32;;;3.22;;
72611;SDS011;60655;52.182;4.474;2023-07-08T03:48:35;7.15;;;3.70;;
72611;SDS011;60655;52.182;4.474;2023-07-08T03:50:36;7.38;;;3.53;;
72611;SDS011;60655;52.182;4.474;2023-07-08T03:52:37;8.52;;;3.70;;
72611;SDS011;60655;52.182;4.474;2023-07-08T03:54:38;9.52;;;3.70;;
72611;SDS011;60655;52.182;4.474;2023-07-08T03:56:39;6.93;;;3.35;;
72611;SDS011;60655;52.182;4.474;2023-07-08T03:58:40;9.93;;;3.70;;
72611;SDS011;60655;52.182;4.474;2023-07-08T04:00:41;7.03;;;3.50;;
72611;SDS011;60655;52.182;4.474;2023-07-08T04:02:42;10.30;;;3.53;;
72611;SDS011;60655;52.182;4.474;2023-07-08T04:04:45;8.73;;;3.53;;
72611;SDS011;60655;52.182;4.474;2023-07-08T04:06:47;8.48;;;3.13;;
72611;SDS011;60655;52.182;4.474;2023-07-08T04:08:48;7.00;;;3.20;;
72611;SDS011;60655;52.182;4.474;2023-07-08T04:10:49;8.68;;;3.80;;
72611;SDS011;60655;52.182;4.474;2023-07-08T04:12:50;8.10;;;3.78;;
72611;SDS011;60655;52.182;4.474;2023-07-08T04:14:51;10.93;;;4.07;;
72611;SDS011;60655;52.182;4.474;2023-07-08T04:16:54;8.23;;;3.85;;
72611;SDS011;60655;52.182;4.474;2023-07-08T04:18:58;7.63;;;3.63;;
72611;SDS011;60655;52.182;4.474;2023-07-08T04:20:59;7.05;;;3.42;;
72611;SDS011;60655;52.182;4.474;2023-07-08T04:23:00;7.18;;;3.70;;
72611;SDS011;60655;52.182;4.474;2023-07-08T04:25:02;7.68;;;3.60;;
72611;SDS011;60655;52.182;4.474;2023-07-08T04:27:04;7.65;;;3.85;;
72611;SDS011;60655;52.182;4.474;2023-07-08T04:29:09;10.70;;;3.60;;
72611;SDS011;60655;52.182;4.474;2023-07-08T04:31:12;8.68;;;3.40;;
72611;SDS011;60655;52.182;4.474;2023-07-08T04:33:13;9.65;;;3.45;;
72611;SDS011;60655;52.182;4.474;2023-07-08T04:35:15;7.45;;;3.30;;
72611;SDS011;60655;52.182;4.474;2023-07-08T04:37:16;7.03;;;3.72;;
72611;SDS011;60655;52.182;4.474;2023-07-08T04:39:17;8.43;;;3.55;;
72611;SDS011;60655;52.182;4.474;2023-07-08T04:41:18;9.23;;;3.22;;
72611;SDS011;60655;52.182;4.474;2023-07-08T04:43:20;7.93;;;3.40;;
72611;SDS011;60655;52.182;4.474;2023-07-08T04:45:22;6.35;;;2.97;;
72611;SDS011;60655;52.182;4.474;2023-07-08T04:47:23;8.35;;;3.63;;
72611;SDS011;60655;52.182;4.474;2023-07-08T04:49:24;8.35;;;3.38;;
72611;SDS011;60655;52.182;4.474;2023-07-08T04:51:32;7.88;;;3.28;;
72611;SDS011;60655;52.182;4.474;2023-07-08T04:53:33;8.10;;;3.28;;
72611;SDS011;60655;52.182;4.474;2023-07-08T04:55:35;6.85;;;3.42;;
72611;SDS011;60655;52.182;4.474;2023-07-08T04:57:38;8.05;;;3.40;;
72611;SDS011;60655;52.182;4.474;2023-07-08T04:59:39;8.45;;;3.78;;
72611;SDS011;60655;52.182;4.474;2023-07-08T05:01:40;11.32;;;3.88;;
72611;SDS011;60655;52.182;4.474;2023-07-08T05:03:42;8.82;;;3.58;;
72611;SDS011;60655;52.182;4.474;2023-07-08T05:05:43;6.55;;;3.28;;
72611;SDS011;60655;52.182;4.474;2023-07-08T05:07:44;10.73;;;3.85;;
72611;SDS011;60655;52.182;4.474;2023-07-08T05:09:45;7.40;;;3.50;;
72611;SDS011;60655;52.182;4.474;2023-07-08T05:11:46;8.13;;;3.70;;
72611;SDS011;60655;52.182;4.474;2023-07-08T05:13:47;8.27;;;3.53;;
72611;SDS011;60655;52.182;4.474;2023-07-08T05:15:48;6.35;;;3.22;;
72611;SDS011;60655;52.182;4.474;2023-07-08T05:17:50;6.95;;;3.58;;
72611;SDS011;60655;52.182;4.474;2023-07-08T05:19:52;10.70;;;3.90;;
72611;SDS011;60655;52.182;4.474;2023-07-08T05:21:54;7.93;;;3.30;;
72611;SDS011;60655;52.182;4.474;2023-07-08T05:23:55;7.03;;;3.65;;
72611;SDS011;60655;52.182;4.474;2023-07-08T05:25:58;10.00;;;3.53;;
72611;SDS011;60655;52.182;4.474;2023-07-08T05:28:00;6.72;;;3.40;;
72611;SDS011;60655;52.182;4.474;2023-07-08T05:30:02;9.50;;;3.65;;
72611;SDS011;60655;52.182;4.474;2023-07-08T05:32:04;7.30;;;3.78;;
72611;SDS011;60655;52.182;4.474;2023-07-08T05:34:05;7.70;;;3.55;;
72611;SDS011;60655;52.182;4.474;2023-07-08T05:36:06;7.55;;;3.65;;
72611;SDS011;60655;52.182;4.474;2023-07-08T05:38:07;6.78;;;3.20;;
72611;SDS011;60655;52.182;4.474;2023-07-08T05:40:08;9.10;;;3.63;;
72611;SDS011;60655;52.182;4.474;2023-07-08T05:42:09;8.35;;;3.28;;
72611;SDS011;60655;52.182;4.474;2023-07-08T05:44:10;12.40;;;3.55;;
72611;SDS011;60655;52.182;4.474;2023-07-08T05:46:11;7.80;;;3.50;;
72611;SDS011;60655;52.182;4.474;2023-07-08T05:48:12;7.15;;;3.65;;
72611;SDS011;60655;52.182;4.474;2023-07-08T05:50:13;7.50;;;3.20;;
72611;SDS011;60655;52.182;4.474;2023-07-08T05:52:14;7.50;;;3.15;;
72611;SDS011;60655;52.182;4.474;2023-07-08T05:54:15;11.05;;;3.25;;
72611;SDS011;60655;52.182;4.474;2023-07-08T05:56:16;7.25;;;3.85;;
72611;SDS011;60655;52.182;4.474;2023-07-08T05:58:17;11.27;;;4.28;;
72611;SDS011;60655;52.182;4.474;2023-07-08T06:00:18;10.60;;;4.00;;
72611;SDS011;60655;52.182;4.474;2023-07-08T06:02:19;6.75;;;3.30;;
72611;SDS011;60655;52.182;4.474;2023-07-08T06:04:26;8.57;;;3.88;;
72611;SDS011;60655;52.182;4.474;2023-07-08T06:06:28;7.60;;;3.63;;
72611;SDS011;60655;52.182;4.474;2023-07-08T06:08:29;7.65;;;3.67;;
72611;SDS011;60655;52.182;4.474;2023-07-08T06:10:30;8.13;;;3.60;;
72611;SDS011;60655;52.182;4.474;2023-07-08T06:12:31;9.20;;;3.67;;
72611;SDS011;60655;52.182;4.474;2023-07-08T06:14:32;6.95;;;3.53;;
72611;SDS011;60655;52.182;4.474;2023-07-08T06:16:33;9.48;;;4.07;;
72611;SDS011;60655;52.182;4.474;2023-07-08T06:18:35;7.60;;;3.88;;
72611;SDS011;60655;52.182;4.474;2023-07-08T06:20:36;8.57;;;3.38;;
72611;SDS011;60655;52.182;4.474;2023-07-08T06:22:37;7.07;;;3.55;;
72611;SDS011;60655;52.182;4.474;2023-07-08T06:24:41;7.75;;;3.88;;
72611;SDS011;60655;52.182;4.474;2023-07-08T06:26:46;7.45;;;3.40;;
72611;SDS011;60655;52.182;4.474;2023-07-08T06:28:47;6.95;;;3.17;;
72611;SDS011;60655;52.182;4.474;2023-07-08T06:30:48;7.13;;;3.40;;
72611;SDS011;60655;52.182;4.474;2023-07-08T06:32:49;9.88;;;3.83;;
72611;SDS011;60655;52.182;4.474;2023-07-08T06:34:51;6.45;;;3.30;;
72611;SDS011;60655;52.182;4.474;2023-07-08T06:36:52;10.55;;;3.65;;
72611;SDS011;60655;52.182;4.474;2023-07-08T06:38:53;6.75;;;3.35;;
72611;SDS011;60655;52.182;4.474;2023-07-08T06:40:54;11.48;;;3.60;;
72611;SDS011;60655;52.182;4.474;2023-07-08T06:42:55;8.02;;;3.88;;
72611;SDS011;60655;52.182;4.474;2023-07-08T06:44:56;7.93;;;3.40;;
72611;SDS011;60655;52.182;4.474;2023-07-08T06:46:57;10.35;;;3.42;;
72611;SDS011;60655;52.182;4.474;2023-07-08T06:48:58;7.13;;;3.20;;
72611;SDS011;60655;52.182;4.474;2023-07-08T06:50:59;7.30;;;3.67;;
72611;SDS011;60655;52.182;4.474;2023-07-08T06:53:00;8.45;;;3.42;;
72611;SDS011;60655;52.182;4.474;2023-07-08T06:55:01;6.43;;;3.40;;
72611;SDS011;60655;52.182;4.474;2023-07-08T06:57:03;7.47;;;3.60;;
72611;SDS011;60655;52.182;4.474;2023-07-08T06:59:05;7.70;;;3.38;;
72611;SDS011;60655;52.182;4.474;2023-07-08T07:01:06;7.95;;;3.25;;
72611;SDS011;60655;52.182;4.474;2023-07-08T07:03:07;9.57;;;3.20;;
72611;SDS011;60655;52.182;4.474;2023-07-08T07:05:08;6.70;;;3.00;;
72611;SDS011;60655;52.182;4.474;2023-07-08T07:07:10;5.07;;;2.58;;
72611;SDS011;60655;52.182;4.474;2023-07-08T07:09:10;7.43;;;3.58;;
72611;SDS011;60655;52.182;4.474;2023-07-08T07:11:11;7.72;;;3.30;;
72611;SDS011;60655;52.182;4.474;2023-07-08T07:13:12;6.68;;;2.90;;
72611;SDS011;60655;52.182;4.474;2023-07-08T07:15:13;9.60;;;3.40;;
72611;SDS011;60655;52.182;4.474;2023-07-08T07:17:14;8.27;;;3.53;;
72611;SDS011;60655;52.182;4.474;2023-07-08T07:19:15;8.85;;;3.30;;
72611;SDS011;60655;52.182;4.474;2023-07-08T07:21:16;7.50;;;3.50;;
72611;SDS011;60655;52.182;4.474;2023-07-08T07:23:17;6.85;;;3.20;;
72611;SDS011;60655;52.182;4.474;2023-07-08T07:25:19;7.47;;;3.78;;
72611;SDS011;60655;52.182;4.474;2023-07-08T07:27:20;12.05;;;3.25;;
72611;SDS011;60655;52.182;4.474;2023-07-08T07:29:22;6.70;;;3.20;;
72611;SDS011;60655;52.182;4.474;2023-07-08T07:31:24;7.55;;;3.75;;
72611;SDS011;60655;52.182;4.474;2023-07-08T07:33:25;8.63;;;3.65;;
72611;SDS011;60655;52.182;4.474;2023-07-08T07:35:26;8.35;;;3.97;;
72611;SDS011;60655;52.182;4.474;2023-07-08T07:37:27;7.95;;;3.65;;
72611;SDS011;60655;52.182;4.474;2023-07-08T07:39:28;8.73;;;3.70;;
72611;SDS011;60655;52.182;4.474;2023-07-08T07:41:29;7.70;;;3.53;;
72611;SDS011;60655;52.182;4.474;2023-07-08T07:43:30;8.02;;;3.88;;
72611;SDS011;60655;52.182;4.474;2023-07-08T07:45:31;6.35;;;3.22;;
72611;SDS011;60655;52.182;4.474;2023-07-08T07:47:33;7.55;;;3.47;;
72611;SDS011;60655;52.182;4.474;2023-07-08T07:49:37;7.10;;;3.33;;
72611;SDS011;60655;52.182;4.474;2023-07-08T07:51:39;6.40;;;3.38;;
72611;SDS011;60655;52.182;4.474;2023-07-08T07:53:40;8.00;;;3.63;;
72611;SDS011;60655;52.182;4.474;2023-07-08T07:55:41;6.90;;;3.47;;
72611;SDS011;60655;52.182;4.474;2023-07-08T07:57:42;8.00;;;3.50;;
72611;SDS011;60655;52.182;4.474;2023-07-08T07:59:46;9.00;;;3.63;;
72611;SDS011;60655;52.182;4.474;2023-07-08T08:01:50;9.02;;;3.40;;
72611;SDS011;60655;52.182;4.474;2023-07-08T08:03:51;7.65;;;3.22;;
72611;SDS011;60655;52.182;4.474;2023-07-08T08:05:53;7.22;;;3.47;;
72611;SDS011;60655;52.182;4.474;2023-07-08T08:07:54;7.43;;;3.20;;
72611;SDS011;60655;52.182;4.474;2023-07-08T08:09:54;9.32;;;3.85;;
72611;SDS011;60655;52.182;4.474;2023-07-08T08:11:56;8.15;;;3.00;;
72611;SDS011;60655;52.182;4.474;2023-07-08T08:13:57;6.70;;;3.10;;
72611;SDS011;60655;52.182;4.474;2023-07-08T08:15:58;9.05;;;3.70;;
72611;SDS011;60655;52.182;4.474;2023-07-08T08:18:00;9.27;;;3.65;;
72611;SDS011;60655;52.182;4.474;2023-07-08T08:20:04;7.82;;;3.25;;
72611;SDS011;60655;52.182;4.474;2023-07-08T08:22:06;7.20;;;3.60;;
72611;SDS011;60655;52.182;4.474;2023-07-08T08:24:06;8.02;;;3.90;;
72611;SDS011;60655;52.182;4.474;2023-07-08T08:26:09;7.25;;;3.53;;
72611;SDS011;60655;52.182;4.474;2023-07-08T08:28:10;7.65;;;3.60;;
72611;SDS011;60655;52.182;4.474;2023-07-08T08:30:11;7.65;;;3.58;;
72611;SDS011;60655;52.182;4.474;2023-07-08T08:32:13;10.43;;;4.00;;
72611;SDS011;60655;52.182;4.474;2023-07-08T08:34:14;9.55;;;3.70;;
72611;SDS011;60655;52.182;4.474;2023-07-08T08:36:15;7.18;;;3.28;;
72611;SDS011;60655;52.182;4.474;2023-07-08T08:38:16;7.18;;;3.30;;
72611;SDS011;60655;52.182;4.474;2023-07-08T08:40:18;11.70;;;3.72;;
72611;SDS011;60655;52.182;4.474;2023-07-08T08:42:25;7.80;;;3.85;;
72611;SDS011;60655;52.182;4.474;2023-07-08T08:44:32;7.80;;;4.05;;
72611;SDS011;60655;52.182;4.474;2023-07-08T08:46:52;7.63;;;3.50;;
72611;SDS011;60655;52.182;4.474;2023-07-08T08:51:16;9.10;;;3.50;;
72611;SDS011;60655;52.182;4.474;2023-07-08T08:53:17;10.45;;;3.67;;
72611;SDS011;60655;52.182;4.474;2023-07-08T08:55:21;8.30;;;4.05;;
72611;SDS011;60655;52.182;4.474;2023-07-08T08:57:36;7.38;;;3.90;;
72611;SDS011;60655;52.182;4.474;2023-07-08T08:59:48;10.85;;;3.90;;
72611;SDS011;60655;52.182;4.474;2023-07-08T09:01:57;9.60;;;3.50;;
72611;SDS011;60655;52.182;4.474;2023-07-08T09:06:00;10.07;;;3.40;;
72611;SDS011;60655;52.182;4.474;2023-07-08T09:12:53;11.45;;;3.75;;
72611;SDS011;60655;52.182;4.474;2023-07-08T09:14:59;8.93;;;3.55;;
72611;SDS011;60655;52.182;4.474;2023-07-08T09:19:24;9.35;;;4.00;;
72611;SDS011;60655;52.182;4.474;2023-07-08T09:21:31;12.30;;;4.00;;
72611;SDS011;60655;52.182;4.474;2023-07-08T09:23:41;8.85;;;3.80;;
72611;SDS011;60655;52.182;4.474;2023-07-08T09:25:46;8.93;;;3.90;;
72611;SDS011;60655;52.182;4.474;2023-07-08T09:27:53;8.68;;;4.03;;
72611;SDS011;60655;52.182;4.474;2023-07-08T09:29:55;11.68;;;4.43;;
72611;SDS011;60655;52.182;4.474;2023-07-08T09:31:57;11.07;;;4.38;;
72611;SDS011;60655;52.182;4.474;2023-07-08T09:34:15;9.73;;;3.70;;
72611;SDS011;60655;52.182;4.474;2023-07-08T09:36:18;8.98;;;3.42;;
72611;SDS011;60655;52.182;4.474;2023-07-08T09:38:23;7.88;;;4.30;;
72611;SDS011;60655;52.182;4.474;2023-07-08T09:40:32;8.68;;;4.03;;
72611;SDS011;60655;52.182;4.474;2023-07-08T09:42:34;9.20;;;4.38;;
72611;SDS011;60655;52.182;4.474;2023-07-08T09:44:35;10.32;;;4.22;;
72611;SDS011;60655;52.182;4.474;2023-07-08T09:46:39;10.02;;;3.72;;
72611;SDS011;60655;52.182;4.474;2023-07-08T09:48:40;8.02;;;3.75;;
72611;SDS011;60655;52.182;4.474;2023-07-08T09:50:42;9.75;;;4.30;;
72611;SDS011;60655;52.182;4.474;2023-07-08T09:52:45;9.43;;;4.07;;
72611;SDS011;60655;52.182;4.474;2023-07-08T09:54:47;7.97;;;3.67;;
72611;SDS011;60655;52.182;4.474;2023-07-08T09:57:11;11.05;;;4.18;;
72611;SDS011;60655;52.182;4.474;2023-07-08T09:59:23;7.88;;;3.78;;
72611;SDS011;60655;52.182;4.474;2023-07-08T10:01:29;9.32;;;4.03;;
72611;SDS011;60655;52.182;4.474;2023-07-08T10:03:31;9.75;;;3.85;;
72611;SDS011;60655;52.182;4.474;2023-07-08T10:05:35;9.25;;;3.63;;
72611;SDS011;60655;52.182;4.474;2023-07-08T10:07:39;7.38;;;3.42;;
72611;SDS011;60655;52.182;4.474;2023-07-08T10:09:40;9.13;;;3.83;;
72611;SDS011;60655;52.182;4.474;2023-07-08T10:11:48;7.25;;;3.92;;
72611;SDS011;60655;52.182;4.474;2023-07-08T10:13:55;9.65;;;3.67;;
72611;SDS011;60655;52.182;4.474;2023-07-08T10:16:13;8.48;;;4.13;;
72611;SDS011;60655;52.182;4.474;2023-07-08T10:18:26;11.48;;;3.85;;
72611;SDS011;60655;52.182;4.474;2023-07-08T10:20:35;8.43;;;4.05;;
72611;SDS011;60655;52.182;4.474;2023-07-08T10:25:44;9.18;;;4.70;;
72611;SDS011;60655;52.182;4.474;2023-07-08T10:27:57;11.18;;;4.63;;
72611;SDS011;60655;52.182;4.474;2023-07-08T10:35:12;7.82;;;4.07;;
72611;SDS011;60655;52.182;4.474;2023-07-08T10:40:13;10.57;;;4.43;;
72611;SDS011;60655;52.182;4.474;2023-07-08T10:56:13;13.85;;;4.20;;
72611;SDS011;60655;52.182;4.474;2023-07-08T11:05:45;8.32;;;4.35;;
72611;SDS011;60655;52.182;4.474;2023-07-08T11:07:53;9.32;;;4.13;;
72611;SDS011;60655;52.182;4.474;2023-07-08T11:10:05;10.30;;;4.40;;
72611;SDS011;60655;52.182;4.474;2023-07-08T11:12:49;11.77;;;4.57;;
72611;SDS011;60655;52.182;4.474;2023-07-08T11:14:47;9.25;;;4.28;;
72611;SDS011;60655;52.182;4.474;2023-07-08T11:19:07;9.23;;;4.28;;
72611;SDS011;60655;52.182;4.474;2023-07-08T11:21:22;13.52;;;5.03;;
72611;SDS011;60655;52.182;4.474;2023-07-08T11:23:47;8.85;;;4.25;;
72611;SDS011;60655;52.182;4.474;2023-07-08T11:25:54;10.45;;;4.35;;
72611;SDS011;60655;52.182;4.474;2023-07-08T11:28:05;9.00;;;4.45;;
72611;SDS011;60655;52.182;4.474;2023-07-08T11:30:16;12.77;;;4.57;;
72611;SDS011;60655;52.182;4.474;2023-07-08T11:32:21;8.93;;;5.03;;
72611;SDS011;60655;52.182;4.474;2023-07-08T11:36:28;8.65;;;4.40;;
72611;SDS011;60655;52.182;4.474;2023-07-08T11:38:32;12.57;;;5.32;;
72611;SDS011;60655;52.182;4.474;2023-07-08T11:40:38;8.90;;;4.40;;
72611;SDS011;60655;52.182;4.474;2023-07-08T11:43:01;10.82;;;4.53;;
72611;SDS011;60655;52.182;4.474;2023-07-08T11:47:21;9.95;;;4.90;;
72611;SDS011;60655;52.182;4.474;2023-07-08T11:49:27;10.63;;;4.80;;
72611;SDS011;60655;52.182;4.474;2023-07-08T11:51:30;8.18;;;4.68;;
72611;SDS011;60655;52.182;4.474;2023-07-08T11:53:38;11.77;;;4.63;;
72611;SDS011;60655;52.182;4.474;2023-07-08T11:55:55;11.15;;;5.07;;
72611;SDS011;60655;52.182;4.474;2023-07-08T11:57:59;8.52;;;4.68;;
72611;SDS011;60655;52.182;4.474;2023-07-08T12:00:34;9.43;;;4.40;;
72611;SDS011;60655;52.182;4.474;2023-07-08T12:02:47;9.77;;;4.95;;
72611;SDS011;60655;52.182;4.474;2023-07-08T12:07:02;10.60;;;4.85;;
72611;SDS011;60655;52.182;4.474;2023-07-08T12:09:13;10.50;;;4.50;;
72611;SDS011;60655;52.182;4.474;2023-07-08T12:11:32;9.70;;;4.75;;
72611;SDS011;60655;52.182;4.474;2023-07-08T12:13:35;9.38;;;4.70;;
72611;SDS011;60655;52.182;4.474;2023-07-08T12:15:36;11.35;;;5.05;;
72611;SDS011;60655;52.182;4.474;2023-07-08T12:17:38;10.07;;;4.80;;
72611;SDS011;60655;52.182;4.474;2023-07-08T12:19:39;9.02;;;4.47;;
72611;SDS011;60655;52.182;4.474;2023-07-08T12:21:43;11.13;;;4.97;;
72611;SDS011;60655;52.182;4.474;2023-07-08T12:23:44;10.63;;;4.75;;
72611;SDS011;60655;52.182;4.474;2023-07-08T12:25:46;10.70;;;5.00;;
72611;SDS011;60655;52.182;4.474;2023-07-08T12:27:47;12.75;;;4.50;;
72611;SDS011;60655;52.182;4.474;2023-07-08T12:29:49;11.43;;;4.53;;
72611;SDS011;60655;52.182;4.474;2023-07-08T12:31:50;9.38;;;4.85;;
72611;SDS011;60655;52.182;4.474;2023-07-08T12:33:51;9.63;;;4.82;;
72611;SDS011;60655;52.182;4.474;2023-07-08T12:35:53;9.05;;;4.93;;
72611;SDS011;60655;52.182;4.474;2023-07-08T12:37:58;8.63;;;5.10;;
72611;SDS011;60655;52.182;4.474;2023-07-08T12:40:01;12.98;;;6.63;;
72611;SDS011;60655;52.182;4.474;2023-07-08T12:42:10;12.73;;;5.35;;
72611;SDS011;60655;52.182;4.474;2023-07-08T12:44:17;9.57;;;4.32;;
72611;SDS011;60655;52.182;4.474;2023-07-08T12:46:22;9.45;;;4.43;;
72611;SDS011;60655;52.182;4.474;2023-07-08T12:48:24;11.10;;;4.57;;
72611;SDS011;60655;52.182;4.474;2023-07-08T12:50:25;10.10;;;5.00;;
72611;SDS011;60655;52.182;4.474;2023-07-08T12:52:26;11.68;;;4.53;;
72611;SDS011;60655;52.182;4.474;2023-07-08T12:54:27;12.93;;;4.70;;
72611;SDS011;60655;52.182;4.474;2023-07-08T12:56:29;10.88;;;4.10;;
72611;SDS011;60655;52.182;4.474;2023-07-08T12:58:31;8.95;;;4.72;;
72611;SDS011;60655;52.182;4.474;2023-07-08T13:00:36;8.82;;;4.50;;
72611;SDS011;60655;52.182;4.474;2023-07-08T13:02:43;10.50;;;4.18;;
72611;SDS011;60655;52.182;4.474;2023-07-08T13:04:47;10.40;;;4.60;;
72611;SDS011;60655;52.182;4.474;2023-07-08T13:06:51;8.57;;;4.70;;
72611;SDS011;60655;52.182;4.474;2023-07-08T13:08:52;9.43;;;4.55;;
72611;SDS011;60655;52.182;4.474;2023-07-08T13:10:57;10.18;;;4.50;;
72611;SDS011;60655;52.182;4.474;2023-07-08T13:13:00;10.45;;;3.80;;
72611;SDS011;60655;52.182;4.474;2023-07-08T13:15:04;9.02;;;4.13;;
72611;SDS011;60655;52.182;4.474;2023-07-08T13:17:13;9.30;;;4.72;;
72611;SDS011;60655;52.182;4.474;2023-07-08T13:19:14;9.50;;;4.30;;
72611;SDS011;60655;52.182;4.474;2023-07-08T13:21:16;8.27;;;3.85;;
72611;SDS011;60655;52.182;4.474;2023-07-08T13:23:17;8.88;;;4.30;;
72611;SDS011;60655;52.182;4.474;2023-07-08T13:25:20;8.98;;;4.38;;